sensor_id;sensor_type;location;lat;lon;timestamp;P1;durP1;ratioP1;P2;durP2;ratioP2
38853;SDS011;24606;51.992;4.198;2023-12-07T00:02:45;9.00;;;5.63;;
38853;SDS011;24606;51.992;4.198;2023-12-07T00:07:47;9.98;;;5.32;;
38853;SDS011;24606;51.992;4.198;2023-12-07T00:12:50;8.07;;;5.07;;
38853;SDS011;24606;51.992;4.198;2023-12-07T00:17:52;8.38;;;4.22;;
38853;SDS011;24606;51.992;4.198;2023-12-07T00:22:54;9.32;;;4.90;;
38853;SDS011;24606;51.992;4.198;2023-12-07T00:27:58;6.05;;;3.85;;
38853;SDS011;24606;51.992;4.198;2023-12-07T00:33:00;6.85;;;3.60;;
38853;SDS011;24606;51.992;4.198;2023-12-07T00:38:02;7.22;;;4.00;;
38853;SDS011;24606;51.992;4.198;2023-12-07T00:43:07;8.10;;;4.13;;
38853;SDS011;24606;51.992;4.198;2023-12-07T00:48:09;8.38;;;3.88;;
38853;SDS011;24606;51.992;4.198;2023-12-07T00:53:11;6.50;;;4.03;;
38853;SDS011;24606;51.992;4.198;2023-12-07T00:58:15;11.50;;;3.92;;
38853;SDS011;24606;51.992;4.198;2023-12-07T01:03:17;6.10;;;3.95;;
38853;SDS011;24606;51.992;4.198;2023-12-07T01:08:19;6.82;;;3.83;;
38853;SDS011;24606;51.992;4.198;2023-12-07T01:13:22;7.68;;;3.65;;
38853;SDS011;24606;51.992;4.198;2023-12-07T01:18:25;6.65;;;4.05;;
38853;SDS011;24606;51.992;4.198;2023-12-07T01:23:27;7.35;;;3.70;;
38853;SDS011;24606;51.992;4.198;2023-12-07T01:28:30;5.25;;;3.58;;
38853;SDS011;24606;51.992;4.198;2023-12-07T01:33:32;6.25;;;3.50;;
38853;SDS011;24606;51.992;4.198;2023-12-07T01:38:34;6.83;;;4.03;;
38853;SDS011;24606;51.992;4.198;2023-12-07T01:43:37;6.20;;;3.23;;
38853;SDS011;24606;51.992;4.198;2023-12-07T01:48:46;5.00;;;3.10;;
38853;SDS011;24606;51.992;4.198;2023-12-07T01:53:49;6.05;;;3.03;;
38853;SDS011;24606;51.992;4.198;2023-12-07T02:03:55;4.18;;;3.10;;
38853;SDS011;24606;51.992;4.198;2023-12-07T02:08:57;5.20;;;2.80;;
38853;SDS011;24606;51.992;4.198;2023-12-07T02:14:01;4.43;;;2.53;;
38853;SDS011;24606;51.992;4.198;2023-12-07T02:19:15;7.43;;;3.08;;
38853;SDS011;24606;51.992;4.198;2023-12-07T02:24:27;4.57;;;2.40;;
38853;SDS011;24606;51.992;4.198;2023-12-07T02:29:33;4.97;;;2.67;;
38853;SDS011;24606;51.992;4.198;2023-12-07T02:34:35;4.63;;;2.60;;
38853;SDS011;24606;51.992;4.198;2023-12-07T02:39:37;4.93;;;3.00;;
38853;SDS011;24606;51.992;4.198;2023-12-07T02:44:41;3.00;;;2.13;;
38853;SDS011;24606;51.992;4.198;2023-12-07T02:49:43;4.75;;;2.30;;
38853;SDS011;24606;51.992;4.198;2023-12-07T02:54:45;3.95;;;2.13;;
38853;SDS011;24606;51.992;4.198;2023-12-07T02:59:49;4.40;;;2.33;;
38853;SDS011;24606;51.992;4.198;2023-12-07T03:04:51;3.63;;;2.17;;
38853;SDS011;24606;51.992;4.198;2023-12-07T03:09:53;3.63;;;1.92;;
38853;SDS011;24606;51.992;4.198;2023-12-07T03:14:57;3.17;;;2.03;;
38853;SDS011;24606;51.992;4.198;2023-12-07T03:19:59;3.67;;;2.58;;
38853;SDS011;24606;51.992;4.198;2023-12-07T03:25:01;3.20;;;2.40;;
38853;SDS011;24606;51.992;4.198;2023-12-07T03:30:05;3.15;;;2.22;;
38853;SDS011;24606;51.992;4.198;2023-12-07T03:35:08;4.57;;;2.40;;
38853;SDS011;24606;51.992;4.198;2023-12-07T03:40:10;4.50;;;2.10;;
38853;SDS011;24606;51.992;4.198;2023-12-07T03:50:16;2.72;;;1.67;;
38853;SDS011;24606;51.992;4.198;2023-12-07T03:55:18;3.83;;;1.97;;
38853;SDS011;24606;51.992;4.198;2023-12-07T04:15:30;3.10;;;1.73;;
38853;SDS011;24606;51.992;4.198;2023-12-07T04:20:32;3.67;;;2.17;;
38853;SDS011;24606;51.992;4.198;2023-12-07T04:25:34;4.03;;;2.07;;
38853;SDS011;24606;51.992;4.198;2023-12-07T04:30:37;3.43;;;1.87;;
38853;SDS011;24606;51.992;4.198;2023-12-07T04:35:39;7.05;;;2.22;;
38853;SDS011;24606;51.992;4.198;2023-12-07T04:40:41;4.72;;;2.25;;
38853;SDS011;24606;51.992;4.198;2023-12-07T04:45:45;2.50;;;1.90;;
38853;SDS011;24606;51.992;4.198;2023-12-07T04:50:47;2.58;;;1.90;;
38853;SDS011;24606;51.992;4.198;2023-12-07T04:55:49;2.42;;;1.90;;
38853;SDS011;24606;51.992;4.198;2023-12-07T05:00:52;3.37;;;2.17;;
38853;SDS011;24606;51.992;4.198;2023-12-07T05:05:54;3.63;;;2.47;;
38853;SDS011;24606;51.992;4.198;2023-12-07T05:10:57;4.15;;;2.35;;
38853;SDS011;24606;51.992;4.198;2023-12-07T05:16:00;4.20;;;2.65;;
38853;SDS011;24606;51.992;4.198;2023-12-07T05:21:03;4.07;;;2.22;;
38853;SDS011;24606;51.992;4.198;2023-12-07T05:31:15;2.40;;;1.83;;
38853;SDS011;24606;51.992;4.198;2023-12-07T05:36:17;4.28;;;2.42;;
38853;SDS011;24606;51.992;4.198;2023-12-07T05:41:19;3.10;;;2.15;;
38853;SDS011;24606;51.992;4.198;2023-12-07T05:46:23;3.05;;;1.85;;
38853;SDS011;24606;51.992;4.198;2023-12-07T05:51:25;4.25;;;2.25;;
38853;SDS011;24606;51.992;4.198;2023-12-07T05:56:27;3.42;;;2.28;;
38853;SDS011;24606;51.992;4.198;2023-12-07T06:01:30;3.50;;;2.20;;
38853;SDS011;24606;51.992;4.198;2023-12-07T06:06:32;2.78;;;2.00;;
38853;SDS011;24606;51.992;4.198;2023-12-07T06:11:34;3.67;;;2.03;;
38853;SDS011;24606;51.992;4.198;2023-12-07T06:16:37;2.95;;;1.92;;
38853;SDS011;24606;51.992;4.198;2023-12-07T06:21:39;5.68;;;1.90;;
38853;SDS011;24606;51.992;4.198;2023-12-07T06:26:41;3.20;;;2.30;;
38853;SDS011;24606;51.992;4.198;2023-12-07T06:31:45;2.55;;;2.03;;
38853;SDS011;24606;51.992;4.198;2023-12-07T06:36:47;2.75;;;1.80;;
38853;SDS011;24606;51.992;4.198;2023-12-07T06:41:49;3.03;;;2.10;;
38853;SDS011;24606;51.992;4.198;2023-12-07T06:46:52;5.07;;;2.10;;
38853;SDS011;24606;51.992;4.198;2023-12-07T06:51:54;4.20;;;2.47;;
38853;SDS011;24606;51.992;4.198;2023-12-07T06:56:56;3.63;;;2.13;;
38853;SDS011;24606;51.992;4.198;2023-12-07T07:01:59;3.45;;;1.98;;
38853;SDS011;24606;51.992;4.198;2023-12-07T07:07:02;5.50;;;2.15;;
38853;SDS011;24606;51.992;4.198;2023-12-07T07:12:04;6.95;;;1.95;;
38853;SDS011;24606;51.992;4.198;2023-12-07T07:17:08;3.72;;;2.00;;
38853;SDS011;24606;51.992;4.198;2023-12-07T07:22:10;4.68;;;2.55;;
38853;SDS011;24606;51.992;4.198;2023-12-07T07:27:12;4.88;;;2.63;;
38853;SDS011;24606;51.992;4.198;2023-12-07T07:32:15;7.10;;;2.58;;
38853;SDS011;24606;51.992;4.198;2023-12-07T07:37:17;3.28;;;2.30;;
38853;SDS011;24606;51.992;4.198;2023-12-07T07:42:19;4.03;;;2.35;;
38853;SDS011;24606;51.992;4.198;2023-12-07T07:47:22;4.43;;;2.60;;
38853;SDS011;24606;51.992;4.198;2023-12-07T07:52:25;5.60;;;3.13;;
38853;SDS011;24606;51.992;4.198;2023-12-07T07:57:27;4.10;;;2.83;;
38853;SDS011;24606;51.992;4.198;2023-12-07T08:02:30;5.40;;;2.70;;
38853;SDS011;24606;51.992;4.198;2023-12-07T08:07:32;5.25;;;2.78;;
38853;SDS011;24606;51.992;4.198;2023-12-07T08:12:34;5.27;;;2.93;;
38853;SDS011;24606;51.992;4.198;2023-12-07T08:17:38;5.50;;;3.10;;
38853;SDS011;24606;51.992;4.198;2023-12-07T08:22:40;4.22;;;2.42;;
38853;SDS011;24606;51.992;4.198;2023-12-07T08:27:43;4.85;;;3.00;;
38853;SDS011;24606;51.992;4.198;2023-12-07T08:32:47;4.35;;;3.03;;
38853;SDS011;24606;51.992;4.198;2023-12-07T08:37:49;4.82;;;2.95;;
38853;SDS011;24606;51.992;4.198;2023-12-07T08:42:51;3.72;;;2.60;;
38853;SDS011;24606;51.992;4.198;2023-12-07T08:47:57;5.43;;;3.33;;
38853;SDS011;24606;51.992;4.198;2023-12-07T08:52:59;4.05;;;2.67;;
38853;SDS011;24606;51.992;4.198;2023-12-07T08:58:01;4.67;;;2.97;;
38853;SDS011;24606;51.992;4.198;2023-12-07T09:03:05;5.68;;;3.33;;
38853;SDS011;24606;51.992;4.198;2023-12-07T09:08:08;7.80;;;2.65;;
38853;SDS011;24606;51.992;4.198;2023-12-07T09:13:10;4.57;;;2.83;;
38853;SDS011;24606;51.992;4.198;2023-12-07T09:18:13;5.78;;;3.53;;
38853;SDS011;24606;51.992;4.198;2023-12-07T09:23:15;7.45;;;3.17;;
38853;SDS011;24606;51.992;4.198;2023-12-07T09:28:17;8.77;;;3.63;;
38853;SDS011;24606;51.992;4.198;2023-12-07T09:33:21;6.22;;;3.22;;
38853;SDS011;24606;51.992;4.198;2023-12-07T09:38:23;6.32;;;3.63;;
38853;SDS011;24606;51.992;4.198;2023-12-07T09:43:26;6.57;;;4.13;;
38853;SDS011;24606;51.992;4.198;2023-12-07T09:48:30;7.37;;;3.93;;
38853;SDS011;24606;51.992;4.198;2023-12-07T09:53:32;7.28;;;3.70;;
38853;SDS011;24606;51.992;4.198;2023-12-07T09:58:35;7.18;;;4.13;;
38853;SDS011;24606;51.992;4.198;2023-12-07T10:03:39;10.15;;;4.18;;
38853;SDS011;24606;51.992;4.198;2023-12-07T10:08:41;8.23;;;4.38;;
38853;SDS011;24606;51.992;4.198;2023-12-07T10:13:47;7.93;;;4.53;;
38853;SDS011;24606;51.992;4.198;2023-12-07T10:18:51;6.53;;;3.92;;
38853;SDS011;24606;51.992;4.198;2023-12-07T10:23:53;5.80;;;4.05;;
38853;SDS011;24606;51.992;4.198;2023-12-07T10:28:55;6.85;;;3.45;;
38853;SDS011;24606;51.992;4.198;2023-12-07T10:34:01;7.45;;;4.20;;
38853;SDS011;24606;51.992;4.198;2023-12-07T10:39:03;6.80;;;4.57;;
38853;SDS011;24606;51.992;4.198;2023-12-07T10:44:06;5.95;;;3.83;;
38853;SDS011;24606;51.992;4.198;2023-12-07T10:49:14;12.23;;;4.75;;
38853;SDS011;24606;51.992;4.198;2023-12-07T10:54:22;5.35;;;3.85;;
38853;SDS011;24606;51.992;4.198;2023-12-07T10:59:30;5.93;;;3.63;;
38853;SDS011;24606;51.992;4.198;2023-12-07T11:04:34;6.80;;;3.20;;
38853;SDS011;24606;51.992;4.198;2023-12-07T11:09:38;7.70;;;3.60;;
38853;SDS011;24606;51.992;4.198;2023-12-07T11:14:45;5.93;;;3.45;;
38853;SDS011;24606;51.992;4.198;2023-12-07T11:19:49;9.52;;;3.60;;
38853;SDS011;24606;51.992;4.198;2023-12-07T11:24:52;8.73;;;3.40;;
38853;SDS011;24606;51.992;4.198;2023-12-07T11:29:58;6.20;;;3.03;;
38853;SDS011;24606;51.992;4.198;2023-12-07T11:35:03;5.25;;;3.72;;
38853;SDS011;24606;51.992;4.198;2023-12-07T11:40:07;6.75;;;2.95;;
38853;SDS011;24606;51.992;4.198;2023-12-07T11:45:10;4.10;;;2.65;;
38853;SDS011;24606;51.992;4.198;2023-12-07T11:55:16;9.55;;;4.55;;
38853;SDS011;24606;51.992;4.198;2023-12-07T12:00:18;6.43;;;3.28;;
38853;SDS011;24606;51.992;4.198;2023-12-07T12:05:21;13.27;;;4.85;;
38853;SDS011;24606;51.992;4.198;2023-12-07T12:10:23;7.88;;;4.63;;
38853;SDS011;24606;51.992;4.198;2023-12-07T12:15:26;8.43;;;4.30;;
38853;SDS011;24606;51.992;4.198;2023-12-07T12:20:30;9.52;;;4.50;;
38853;SDS011;24606;51.992;4.198;2023-12-07T12:25:33;8.05;;;4.18;;
38853;SDS011;24606;51.992;4.198;2023-12-07T12:35:38;4.78;;;3.50;;
38853;SDS011;24606;51.992;4.198;2023-12-07T12:40:40;6.63;;;3.70;;
38853;SDS011;24606;51.992;4.198;2023-12-07T12:45:43;6.63;;;4.00;;
38853;SDS011;24606;51.992;4.198;2023-12-07T12:50:47;5.93;;;3.75;;
38853;SDS011;24606;51.992;4.198;2023-12-07T12:55:49;7.78;;;3.67;;
38853;SDS011;24606;51.992;4.198;2023-12-07T13:00:51;6.72;;;3.40;;
38853;SDS011;24606;51.992;4.198;2023-12-07T13:15:58;5.93;;;3.85;;
38853;SDS011;24606;51.992;4.198;2023-12-07T13:21:02;6.53;;;3.90;;
38853;SDS011;24606;51.992;4.198;2023-12-07T13:26:04;5.15;;;3.03;;
38853;SDS011;24606;51.992;4.198;2023-12-07T13:31:06;6.00;;;3.13;;
38853;SDS011;24606;51.992;4.198;2023-12-07T13:36:10;6.00;;;3.10;;
38853;SDS011;24606;51.992;4.198;2023-12-07T13:41:12;8.90;;;3.10;;
38853;SDS011;24606;51.992;4.198;2023-12-07T13:46:14;7.35;;;3.10;;
38853;SDS011;24606;51.992;4.198;2023-12-07T13:51:18;8.40;;;3.28;;
38853;SDS011;24606;51.992;4.198;2023-12-07T13:56:20;5.45;;;3.03;;
38853;SDS011;24606;51.992;4.198;2023-12-07T14:01:23;7.15;;;2.63;;
38853;SDS011;24606;51.992;4.198;2023-12-07T14:06:28;4.88;;;3.22;;
38853;SDS011;24606;51.992;4.198;2023-12-07T14:11:29;8.27;;;3.63;;
38853;SDS011;24606;51.992;4.198;2023-12-07T14:16:32;6.18;;;2.97;;
38853;SDS011;24606;51.992;4.198;2023-12-07T14:21:35;4.43;;;2.60;;
38853;SDS011;24606;51.992;4.198;2023-12-07T14:26:37;6.20;;;3.17;;
38853;SDS011;24606;51.992;4.198;2023-12-07T14:36:43;8.27;;;4.85;;
38853;SDS011;24606;51.992;4.198;2023-12-07T14:41:45;4.75;;;2.90;;
38853;SDS011;24606;51.992;4.198;2023-12-07T14:46:48;5.65;;;3.47;;
38853;SDS011;24606;51.992;4.198;2023-12-07T14:51:53;9.50;;;2.70;;
38853;SDS011;24606;51.992;4.198;2023-12-07T14:56:56;5.05;;;2.17;;
38853;SDS011;24606;51.992;4.198;2023-12-07T15:01:58;5.25;;;2.75;;
38853;SDS011;24606;51.992;4.198;2023-12-07T15:07:02;4.63;;;1.70;;
38853;SDS011;24606;51.992;4.198;2023-12-07T15:12:05;5.95;;;1.95;;
38853;SDS011;24606;51.992;4.198;2023-12-07T15:17:07;7.22;;;2.45;;
38853;SDS011;24606;51.992;4.198;2023-12-07T15:22:11;5.30;;;1.92;;
38853;SDS011;24606;51.992;4.198;2023-12-07T15:27:13;4.47;;;2.05;;
38853;SDS011;24606;51.992;4.198;2023-12-07T15:32:15;4.50;;;1.85;;
38853;SDS011;24606;51.992;4.198;2023-12-07T15:37:18;8.63;;;2.13;;
38853;SDS011;24606;51.992;4.198;2023-12-07T15:42:20;8.05;;;3.25;;
38853;SDS011;24606;51.992;4.198;2023-12-07T15:47:22;2.10;;;0.50;;
38853;SDS011;24606;51.992;4.198;2023-12-07T15:52:26;3.22;;;1.48;;
38853;SDS011;24606;51.992;4.198;2023-12-07T15:57:28;6.93;;;2.13;;
38853;SDS011;24606;51.992;4.198;2023-12-07T16:02:30;5.32;;;1.42;;
38853;SDS011;24606;51.992;4.198;2023-12-07T16:07:33;2.42;;;1.65;;
38853;SDS011;24606;51.992;4.198;2023-12-07T16:12:39;3.28;;;2.00;;
38853;SDS011;24606;51.992;4.198;2023-12-07T16:17:41;4.90;;;1.88;;
38853;SDS011;24606;51.992;4.198;2023-12-07T16:22:44;4.88;;;2.20;;
38853;SDS011;24606;51.992;4.198;2023-12-07T16:27:46;5.22;;;1.85;;
38853;SDS011;24606;51.992;4.198;2023-12-07T16:32:48;3.87;;;1.97;;
38853;SDS011;24606;51.992;4.198;2023-12-07T16:37:51;3.33;;;1.85;;
38853;SDS011;24606;51.992;4.198;2023-12-07T16:42:53;8.63;;;2.25;;
38853;SDS011;24606;51.992;4.198;2023-12-07T16:47:56;7.43;;;2.10;;
38853;SDS011;24606;51.992;4.198;2023-12-07T16:53:00;4.70;;;1.80;;
38853;SDS011;24606;51.992;4.198;2023-12-07T16:58:02;4.95;;;2.28;;
38853;SDS011;24606;51.992;4.198;2023-12-07T17:03:04;7.88;;;3.45;;
38853;SDS011;24606;51.992;4.198;2023-12-07T17:08:07;9.95;;;3.92;;
38853;SDS011;24606;51.992;4.198;2023-12-07T17:13:09;4.47;;;3.20;;
38853;SDS011;24606;51.992;4.198;2023-12-07T17:18:13;8.32;;;3.47;;
38853;SDS011;24606;51.992;4.198;2023-12-07T17:23:16;13.13;;;7.55;;
38853;SDS011;24606;51.992;4.198;2023-12-07T17:28:18;9.15;;;5.32;;
38853;SDS011;24606;51.992;4.198;2023-12-07T17:33:20;10.25;;;5.47;;
38853;SDS011;24606;51.992;4.198;2023-12-07T17:38:24;9.63;;;3.92;;
38853;SDS011;24606;51.992;4.198;2023-12-07T17:43:26;9.18;;;4.78;;
38853;SDS011;24606;51.992;4.198;2023-12-07T17:48:28;10.45;;;3.78;;
38853;SDS011;24606;51.992;4.198;2023-12-07T17:53:32;6.68;;;3.55;;
38853;SDS011;24606;51.992;4.198;2023-12-07T17:58:34;10.02;;;4.30;;
38853;SDS011;24606;51.992;4.198;2023-12-07T18:03:36;8.80;;;3.97;;
38853;SDS011;24606;51.992;4.198;2023-12-07T18:08:39;5.97;;;2.97;;
38853;SDS011;24606;51.992;4.198;2023-12-07T18:13:41;8.02;;;3.45;;
38853;SDS011;24606;51.992;4.198;2023-12-07T18:18:43;7.85;;;3.45;;
38853;SDS011;24606;51.992;4.198;2023-12-07T18:23:46;7.70;;;4.30;;
38853;SDS011;24606;51.992;4.198;2023-12-07T18:28:48;12.57;;;4.00;;
38853;SDS011;24606;51.992;4.198;2023-12-07T18:33:50;7.20;;;3.60;;
38853;SDS011;24606;51.992;4.198;2023-12-07T18:38:53;7.33;;;3.73;;
38853;SDS011;24606;51.992;4.198;2023-12-07T18:43:55;5.90;;;3.55;;
38853;SDS011;24606;51.992;4.198;2023-12-07T18:48:57;7.13;;;3.95;;
38853;SDS011;24606;51.992;4.198;2023-12-07T18:54:01;9.30;;;3.58;;
38853;SDS011;24606;51.992;4.198;2023-12-07T18:59:03;5.28;;;3.17;;
38853;SDS011;24606;51.992;4.198;2023-12-07T19:04:06;5.93;;;2.80;;
38853;SDS011;24606;51.992;4.198;2023-12-07T19:09:10;3.60;;;2.05;;
38853;SDS011;24606;51.992;4.198;2023-12-07T19:14:13;4.75;;;3.38;;
38853;SDS011;24606;51.992;4.198;2023-12-07T19:19:16;6.70;;;2.53;;
38853;SDS011;24606;51.992;4.198;2023-12-07T19:24:19;4.45;;;1.60;;
38853;SDS011;24606;51.992;4.198;2023-12-07T19:29:21;3.67;;;2.20;;
38853;SDS011;24606;51.992;4.198;2023-12-07T19:34:23;5.57;;;2.63;;
38853;SDS011;24606;51.992;4.198;2023-12-07T19:39:28;3.03;;;1.95;;
38853;SDS011;24606;51.992;4.198;2023-12-07T19:44:33;2.05;;;1.50;;
38853;SDS011;24606;51.992;4.198;2023-12-07T19:49:35;2.45;;;1.73;;
38853;SDS011;24606;51.992;4.198;2023-12-07T19:54:38;6.37;;;2.67;;
38853;SDS011;24606;51.992;4.198;2023-12-07T19:59:40;3.13;;;2.05;;
38853;SDS011;24606;51.992;4.198;2023-12-07T20:04:42;5.60;;;2.37;;
38853;SDS011;24606;51.992;4.198;2023-12-07T20:09:46;3.78;;;1.65;;
38853;SDS011;24606;51.992;4.198;2023-12-07T20:14:48;12.40;;;1.83;;
38853;SDS011;24606;51.992;4.198;2023-12-07T20:19:50;4.97;;;2.17;;
38853;SDS011;24606;51.992;4.198;2023-12-07T20:24:54;5.00;;;2.33;;
38853;SDS011;24606;51.992;4.198;2023-12-07T20:29:58;6.38;;;2.17;;
38853;SDS011;24606;51.992;4.198;2023-12-07T20:35:00;9.88;;;2.60;;
38853;SDS011;24606;51.992;4.198;2023-12-07T20:40:05;14.82;;;3.47;;
38853;SDS011;24606;51.992;4.198;2023-12-07T20:45:08;9.13;;;3.05;;
38853;SDS011;24606;51.992;4.198;2023-12-07T20:55:13;9.90;;;2.75;;
38853;SDS011;24606;51.992;4.198;2023-12-07T21:00:17;9.32;;;3.35;;
38853;SDS011;24606;51.992;4.198;2023-12-07T21:05:19;4.43;;;2.40;;
38853;SDS011;24606;51.992;4.198;2023-12-07T21:10:22;10.77;;;2.40;;
38853;SDS011;24606;51.992;4.198;2023-12-07T21:15:24;6.20;;;1.95;;
38853;SDS011;24606;51.992;4.198;2023-12-07T21:20:27;10.35;;;3.15;;
38853;SDS011;24606;51.992;4.198;2023-12-07T21:25:31;4.47;;;1.83;;
38853;SDS011;24606;51.992;4.198;2023-12-07T21:30:33;10.98;;;2.42;;
38853;SDS011;24606;51.992;4.198;2023-12-07T21:35:39;9.00;;;2.25;;
38853;SDS011;24606;51.992;4.198;2023-12-07T21:40:42;3.75;;;2.25;;
38853;SDS011;24606;51.992;4.198;2023-12-07T21:45:44;8.32;;;1.90;;
38853;SDS011;24606;51.992;4.198;2023-12-07T21:50:46;8.10;;;1.90;;
38853;SDS011;24606;51.992;4.198;2023-12-07T21:55:49;11.67;;;2.77;;
38853;SDS011;24606;51.992;4.198;2023-12-07T22:00:51;7.50;;;2.60;;
38853;SDS011;24606;51.992;4.198;2023-12-07T22:05:53;9.63;;;2.78;;
38853;SDS011;24606;51.992;4.198;2023-12-07T22:10:56;7.15;;;2.17;;
38853;SDS011;24606;51.992;4.198;2023-12-07T22:16:01;9.15;;;2.30;;
38853;SDS011;24606;51.992;4.198;2023-12-07T22:21:03;7.28;;;2.47;;
38853;SDS011;24606;51.992;4.198;2023-12-07T22:26:07;5.15;;;2.55;;
38853;SDS011;24606;51.992;4.198;2023-12-07T22:31:09;6.80;;;2.60;;
38853;SDS011;24606;51.992;4.198;2023-12-07T22:36:13;4.53;;;2.53;;
38853;SDS011;24606;51.992;4.198;2023-12-07T22:41:16;10.30;;;2.55;;
38853;SDS011;24606;51.992;4.198;2023-12-07T22:46:18;5.70;;;2.20;;
38853;SDS011;24606;51.992;4.198;2023-12-07T22:56:24;6.55;;;2.47;;
38853;SDS011;24606;51.992;4.198;2023-12-07T23:01:26;4.43;;;1.83;;
38853;SDS011;24606;51.992;4.198;2023-12-07T23:06:28;3.83;;;1.50;;
38853;SDS011;24606;51.992;4.198;2023-12-07T23:11:31;6.30;;;1.90;;
38853;SDS011;24606;51.992;4.198;2023-12-07T23:16:33;4.72;;;2.38;;
38853;SDS011;24606;51.992;4.198;2023-12-07T23:21:35;5.05;;;2.80;;
38853;SDS011;24606;51.992;4.198;2023-12-07T23:26:38;5.30;;;2.13;;
38853;SDS011;24606;51.992;4.198;2023-12-07T23:31:43;4.03;;;2.75;;
38853;SDS011;24606;51.992;4.198;2023-12-07T23:36:45;8.85;;;2.65;;
38853;SDS011;24606;51.992;4.198;2023-12-07T23:41:51;3.25;;;2.25;;
38853;SDS011;24606;51.992;4.198;2023-12-07T23:46:53;3.33;;;2.20;;
38853;SDS011;24606;51.992;4.198;2023-12-07T23:51:55;4.47;;;2.33;;
